Nashville, Tennessee
Traffic Map
Current Weather Conditions
Nashville, Tennessee
Scattered Clouds
Scattered Clouds
68°
Feels Like: 68°
Wind Chill: 68° Ceiling: Unl
Heat Index: 68° Visibility: 10mi
Dew Point: 61° Wind: 0mph
Humidity: 78% Direction: ° ()
Pressure: 30.08in Gusts: 0mph
Raw Report DataKBNA 251253Z 00000KT 10SM FEW200 SCT250 20/16 A3008 RMK AO2 SLP178 T02000161
Traffic Incident Summary
Active as of:
Severity:
Category:
InformationThere was an issue retrieving the traffic information for this location. Please try a different location or try again shortly.
Advertisements
Track Severe Weather on mobile